Back to Top

Language: 

My Weather Underground Personal Weather Station Historical Data with Graphs...

Delerius Weather Station Historical Data
Daily Summary for January 8, 2018 Units:  English    Metric   Both
« Previous Day
Next Day »
Daily Weekly Monthly Yearly Custom
  High: Low: Average:
Temperature: 37.8 °F 21.6 °F 32.1 °F
Dew Point: 35.5 °F 20.1 °F 30.3 °F
Humidity: 97 % 83 % 93 %
Wind Speed: 9.0 mph 0.0 mph 1.6 mph
Wind Gust: 14.0 mph - -
Wind:- - SE
Pressure: 30.44 in 30.01 in -
Precipitation: 0.02 in    
Historical Graphs
 
 
Tabular Data for January 8, 2018
Time Temperature Dew Point Pressure Wind Wind Speed Wind Gust Humidity Rainfall Rate (Hourly) solar Conditions
00:00 26.2 °F 24.7 °F 30.44 in Calm   1.0 mph 94 % 0.00 in 0 W/m2
00:06 26.1 °F 24.6 °F 30.44 in SW 1.0 mph 2.0 mph 94 % 0.00 in 0 W/m2
00:11 26.1 °F 24.6 °F 30.43 in Calm   1.0 mph 94 % 0.00 in 0 W/m2
00:12 26.1 °F 24.6 °F 30.44 in Calm     94 % 0.00 in 0 W/m2
00:17 25.9 °F 24.4 °F 30.43 in NW 1.0 mph 5.0 mph 94 % 0.00 in 0 W/m2
00:19 25.9 °F 24.4 °F 30.43 in NNW 1.0 mph 4.0 mph 94 % 0.00 in 0 W/m2
00:24 26.1 °F 24.8 °F 30.43 in Calm     95 % 0.00 in 0 W/m2
00:27 26.1 °F 24.8 °F 30.43 in Calm     95 % 0.00 in 0 W/m2
00:32 26.1 °F 24.6 °F 30.43 in Calm     94 % 0.00 in 0 W/m2
00:38 26.1 °F 24.6 °F 30.43 in Calm   1.0 mph 94 % 0.00 in 0 W/m2
00:44 25.9 °F 24.4 °F 30.43 in Calm     94 % 0.00 in 0 W/m2
00:49 25.9 °F 24.4 °F 30.42 in Calm     94 % 0.00 in 0 W/m2
00:54 25.9 °F 24.4 °F 30.42 in Calm     94 % 0.00 in 0 W/m2
00:58 25.9 °F 24.4 °F 30.42 in Calm     94 % 0.00 in 0 W/m2
01:08 25.5 °F 24.0 °F 30.42 in Calm     94 % 0.00 in 0 W/m2
01:10 25.3 °F 23.9 °F 30.42 in Calm     94 % 0.00 in 0 W/m2
01:16 25.0 °F 23.5 °F 30.41 in Calm     94 % 0.00 in 0 W/m2
01:22 25.0 °F 23.5 °F 30.41 in Calm     94 % 0.00 in 0 W/m2
01:27 24.8 °F 23.3 °F 30.41 in Calm     94 % 0.00 in 0 W/m2
01:32 24.6 °F 23.1 °F 30.41 in NNW 1.0 mph 4.0 mph 94 % 0.00 in 0 W/m2
01:37 24.4 °F 23.0 °F 30.42 in WNW 2.0 mph 4.0 mph 94 % 0.00 in 0 W/m2
01:40 24.3 °F 22.8 °F 30.42 in WNW 2.0 mph 3.0 mph 94 % 0.00 in 0 W/m2
01:46 24.4 °F 23.0 °F 30.42 in WNW 1.0 mph 2.0 mph 94 % 0.00 in 0 W/m2
01:51 24.4 °F 23.0 °F 30.42 in Calm   2.0 mph 94 % 0.00 in 0 W/m2
01:56 24.4 °F 23.0 °F 30.42 in Calm     94 % 0.00 in 0 W/m2
02:01 24.4 °F 23.0 °F 30.41 in WNW 1.0 mph 2.0 mph 94 % 0.00 in 0 W/m2
02:07 24.3 °F 22.8 °F 30.41 in WNW 1.0 mph 4.0 mph 94 % 0.00 in 0 W/m2
02:12 24.4 °F 23.2 °F 30.41 in Calm   2.0 mph 95 % 0.00 in 0 W/m2
02:18 24.6 °F 23.4 °F 30.41 in Calm   2.0 mph 95 % 0.00 in 0 W/m2
02:23 24.6 °F 23.4 °F 30.41 in Calm     95 % 0.00 in 0 W/m2
02:28 24.6 °F 23.1 °F 30.41 in Calm   2.0 mph 94 % 0.00 in 0 W/m2
02:35 24.3 °F 22.8 °F 30.41 in Calm   2.0 mph 94 % 0.00 in 0 W/m2
02:40 23.9 °F 22.4 °F 30.41 in Calm     94 % 0.00 in 0 W/m2
02:45 23.7 °F 22.2 °F 30.41 in Calm     94 % 0.00 in 0 W/m2
02:50 23.5 °F 22.1 °F 30.41 in Calm   2.0 mph 94 % 0.00 in 0 W/m2
02:56 23.5 °F 22.1 °F 30.41 in Calm   1.0 mph 94 % 0.00 in 0 W/m2
03:01 23.4 °F 21.9 °F 30.41 in Calm   1.0 mph 94 % 0.00 in 0 W/m2
03:03 23.4 °F 21.9 °F 30.41 in WNW 1.0 mph 2.0 mph 94 % 0.00 in 0 W/m2
03:08 23.4 °F 21.9 °F 30.41 in Calm   2.0 mph 94 % 0.00 in 0 W/m2
03:14 23.2 °F 21.7 °F 30.41 in Calm     94 % 0.00 in 0 W/m2
03:19 23.4 °F 21.9 °F 30.40 in Calm     94 % 0.00 in 0 W/m2
03:26 23.4 °F 22.1 °F 30.40 in Calm   1.0 mph 95 % 0.00 in 0 W/m2
03:36 23.4 °F 22.1 °F 30.40 in Calm   1.0 mph 95 % 0.00 in 0 W/m2
03:41 23.4 °F 22.1 °F 30.40 in Calm     95 % 0.00 in 0 W/m2
03:44 23.5 °F 22.3 °F 30.40 in Calm     95 % 0.00 in 0 W/m2
03:55 23.4 °F 22.1 °F 30.40 in Calm     95 % 0.00 in 0 W/m2
04:02 23.4 °F 22.1 °F 30.39 in Calm     95 % 0.00 in 0 W/m2
04:36 23.4 °F 22.1 °F 30.39 in WNW 1.0 mph 2.0 mph 95 % 0.00 in 0 W/m2
04:48 23.4 °F 22.1 °F 30.39 in Calm   1.0 mph 95 % 0.00 in 0 W/m2
05:03 22.8 °F 21.4 °F 30.38 in Calm     94 % 0.00 in 0 W/m2
05:08 22.6 °F 21.2 °F 30.38 in Calm     94 % 0.00 in 0 W/m2
05:36 22.6 °F 21.4 °F 30.37 in Calm     95 % 0.00 in 0 W/m2
05:45 22.6 °F 21.4 °F 30.37 in Calm     95 % 0.00 in 0 W/m2
05:52 22.5 °F 21.2 °F 30.38 in WNW 2.0 mph 4.0 mph 95 % 0.00 in 0 W/m2
06:07 22.6 °F 21.4 °F 30.38 in Calm     95 % 0.00 in 0 W/m2
06:17 22.1 °F 20.6 °F 30.38 in WNW 1.0 mph 2.0 mph 94 % 0.00 in 0 W/m2
06:24 21.7 °F 20.3 °F 30.38 in WNW 2.0 mph 3.0 mph 94 % 0.00 in 0 W/m2
06:41 21.6 °F 20.1 °F 30.37 in Calm   1.0 mph 94 % 0.00 in 0 W/m2
06:54 21.7 °F 20.5 °F 30.37 in Calm   1.0 mph 95 % 0.00 in 0 W/m2
07:18 22.5 °F 21.2 °F 30.36 in WNW 1.0 mph 2.0 mph 95 % 0.00 in 0 W/m2
07:33 22.5 °F 21.2 °F 30.35 in Calm     95 % 0.00 in 0 W/m2
08:13 21.6 °F 20.1 °F 30.35 in WNW 1.0 mph 2.0 mph 94 % 0.00 in 0 W/m2
08:24 21.6 °F 20.4 °F 30.35 in Calm   1.0 mph 95 % 0.00 in 5 W/m2
08:42 21.9 °F 20.7 °F 30.35 in Calm   1.0 mph 95 % 0.00 in 12 W/m2
08:47 21.9 °F 20.7 °F 30.35 in Calm     95 % 0.00 in 14 W/m2
08:58 21.9 °F 20.7 °F 30.34 in Calm     95 % 0.00 in 16 W/m2
09:03 22.5 °F 21.2 °F 30.34 in Calm     95 % 0.00 in 18 W/m2
09:10 22.6 °F 21.4 °F 30.34 in Calm     95 % 0.00 in 19 W/m2
09:16 22.8 °F 21.6 °F 30.33 in Calm     95 % 0.00 in 21 W/m2
09:20 23.0 °F 21.8 °F 30.33 in Calm     95 % 0.00 in 21 W/m2
09:26 23.2 °F 22.0 °F 30.33 in Calm     95 % 0.00 in 25 W/m2
09:27 23.2 °F 22.0 °F 30.33 in Calm     95 % 0.00 in 26 W/m2
09:32 23.5 °F 22.3 °F 30.33 in Calm     95 % 0.00 in 62 W/m2
09:37 23.7 °F 22.7 °F 30.33 in Calm     96 % 0.00 in 72 W/m2
09:40 24.1 °F 23.1 °F 30.33 in Calm     96 % 0.00 in 83 W/m2
09:45 24.6 °F 23.6 °F 30.33 in Calm     96 % 0.00 in 90 W/m2
09:49 25.2 °F 24.2 °F 30.33 in Calm     96 % 0.00 in 90 W/m2
09:53 25.5 °F 24.5 °F 30.33 in Calm     96 % 0.00 in 95 W/m2
09:58 26.1 °F 25.1 °F 30.32 in Calm     96 % 0.00 in 98 W/m2
10:03 26.4 °F 25.4 °F 30.33 in Calm     96 % 0.00 in 104 W/m2
10:08 26.8 °F 25.8 °F 30.32 in Calm     96 % 0.00 in 109 W/m2
10:13 27.1 °F 26.2 °F 30.32 in Calm     96 % 0.00 in 116 W/m2
10:14 27.1 °F 26.2 °F 30.32 in Calm     96 % 0.00 in 116 W/m2
10:19 27.9 °F 26.9 °F 30.32 in Calm     96 % 0.00 in 135 W/m2
10:22 28.0 °F 27.0 °F 30.32 in Calm     96 % 0.00 in 146 W/m2
10:25 28.4 °F 27.4 °F 30.32 in Calm     96 % 0.00 in 151 W/m2
10:30 28.9 °F 27.9 °F 30.32 in Calm     96 % 0.00 in 158 W/m2
10:32 28.9 °F 27.9 °F 30.32 in Calm     96 % 0.00 in 165 W/m2
10:37 29.5 °F 28.5 °F 30.31 in Calm     96 % 0.00 in 176 W/m2
10:42 29.7 °F 28.4 °F 30.32 in Calm     95 % 0.01 in 190 W/m2
10:45 29.8 °F 28.6 °F 30.32 in Calm     95 % 0.01 in 207 W/m2
10:51 30.4 °F 29.1 °F 30.31 in Calm     95 % 0.01 in 239 W/m2
10:56 30.7 °F 29.5 °F 30.31 in Calm     95 % 0.01 in 260 W/m2
11:01 31.3 °F 30.0 °F 30.31 in Calm     95 % 0.01 in 271 W/m2
11:06 31.6 °F 30.4 °F 30.31 in Calm     95 % 0.01 in 265 W/m2
11:11 32.2 °F 30.9 °F 30.31 in Calm     95 % 0.01 in 269 W/m2
11:16 32.7 °F 31.2 °F 30.30 in Calm     94 % 0.01 in 271 W/m2
11:21 33.3 °F 31.7 °F 30.30 in Calm     94 % 0.01 in 274 W/m2
11:26 33.6 °F 31.8 °F 30.29 in Calm     93 % 0.01 in 278 W/m2
11:27 34.0 °F 32.2 °F 30.29 in Calm     93 % 0.01 in 279 W/m2
11:33 34.3 °F 32.3 °F 30.29 in Calm     92 % 0.01 in 281 W/m2
11:38 34.7 °F 32.6 °F 30.29 in Calm     92 % 0.01 in 285 W/m2
11:39 34.9 °F 32.8 °F 30.28 in Calm     92 % 0.00 in 287 W/m2
11:44 35.1 °F 32.7 °F 30.28 in Calm     91 % 0.00 in 130 W/m2
11:49 34.9 °F 32.0 °F 30.28 in Calm     89 % 0.00 in 127 W/m2
11:55 34.5 °F 31.6 °F 30.28 in Calm     89 % 0.00 in 114 W/m2
12:00 34.3 °F 31.4 °F 30.27 in Calm     89 % 0.00 in 144 W/m2
12:06 34.3 °F 31.7 °F 30.27 in Calm     90 % 0.00 in 149 W/m2
12:11 34.3 °F 31.7 °F 30.26 in Calm     90 % 0.00 in 153 W/m2
12:12 34.3 °F 31.7 °F 30.26 in Calm     90 % 0.00 in 153 W/m2
12:17 34.3 °F 31.7 °F 30.26 in Calm     90 % 0.00 in 195 W/m2
12:19 34.3 °F 31.7 °F 30.26 in Calm     90 % 0.00 in 202 W/m2
12:24 34.5 °F 31.9 °F 30.26 in Calm     90 % 0.00 in 221 W/m2
12:25 34.5 °F 31.9 °F 30.26 in Calm     90 % 0.00 in 220 W/m2
12:26 34.7 °F 32.1 °F 30.26 in Calm     90 % 0.00 in 265 W/m2
12:31 34.9 °F 32.2 °F 30.25 in Calm     90 % 0.00 in 269 W/m2
12:33 35.1 °F 32.7 °F 30.25 in Calm     91 % 0.00 in 186 W/m2
12:39 35.4 °F 32.8 °F 30.25 in Calm     90 % 0.00 in 290 W/m2
12:44 35.8 °F 32.9 °F 30.25 in Calm     89 % 0.00 in 134 W/m2
12:50 35.6 °F 32.7 °F 30.24 in Calm     89 % 0.00 in 148 W/m2
12:56 35.6 °F 32.4 °F 30.24 in Calm     88 % 0.00 in 130 W/m2
13:02 35.8 °F 32.6 °F 30.23 in Calm     88 % 0.00 in 97 W/m2
13:07 35.8 °F 32.6 °F 30.23 in Calm     88 % 0.00 in 172 W/m2
13:12 36.0 °F 32.8 °F 30.23 in Calm     88 % 0.00 in 104 W/m2
13:19 36.0 °F 32.8 °F 30.23 in Calm     88 % 0.00 in 128 W/m2
13:25 36.1 °F 32.6 °F 30.23 in Calm     87 % 0.00 in 104 W/m2
13:31 36.1 °F 32.6 °F 30.23 in Calm     87 % 0.00 in 90 W/m2
13:38 36.1 °F 32.6 °F 30.22 in Calm     87 % 0.00 in 81 W/m2
13:39 36.1 °F 32.6 °F 30.22 in Calm     87 % 0.00 in 77 W/m2
13:43 36.1 °F 32.6 °F 30.22 in Calm   1.0 mph 87 % 0.00 in 72 W/m2
13:49 36.3 °F 32.8 °F 30.21 in Calm   2.0 mph 87 % 0.00 in 70 W/m2
13:54 36.3 °F 32.8 °F 30.21 in Calm   2.0 mph 87 % 0.00 in 60 W/m2
13:59 36.5 °F 33.0 °F 30.21 in Calm   2.0 mph 87 % 0.00 in 53 W/m2
14:04 36.7 °F 32.9 °F 30.21 in East 2.0 mph 6.0 mph 86 % 0.00 in 47 W/m2
14:08 36.9 °F 33.1 °F 30.21 in Calm   3.0 mph 86 % 0.00 in 40 W/m2
14:11 36.9 °F 33.1 °F 30.21 in East 1.0 mph 4.0 mph 86 % 0.00 in 40 W/m2
14:16 37.0 °F 32.9 °F 30.21 in Calm   2.0 mph 85 % 0.00 in 39 W/m2
14:22 37.0 °F 32.9 °F 30.21 in East 2.0 mph 4.0 mph 85 % 0.00 in 33 W/m2
14:28 37.2 °F 32.8 °F 30.20 in ESE 3.0 mph 7.0 mph 84 % 0.00 in 33 W/m2
14:33 37.4 °F 33.0 °F 30.20 in East 3.0 mph 6.0 mph 84 % 0.00 in 30 W/m2
14:37 37.4 °F 32.7 °F 30.20 in East 2.0 mph 6.0 mph 83 % 0.00 in 25 W/m2
14:45 37.6 °F 32.9 °F 30.20 in East 4.0 mph 6.0 mph 83 % 0.00 in 19 W/m2
14:51 37.6 °F 32.9 °F 30.20 in ESE 4.0 mph 7.0 mph 83 % 0.00 in 16 W/m2
14:56 37.6 °F 33.2 °F 30.20 in East 6.0 mph 9.0 mph 84 % 0.00 in 12 W/m2
15:00 37.8 °F 33.4 °F 30.19 in ESE 6.0 mph 11.0 mph 84 % 0.00 in 12 W/m2
15:06 37.8 °F 33.7 °F 30.19 in ESE 5.0 mph 8.0 mph 85 % 0.00 in 11 W/m2
15:12 37.8 °F 33.7 °F 30.19 in ESE 5.0 mph 10.0 mph 85 % 0.00 in 9 W/m2
15:18 37.6 °F 33.8 °F 30.19 in ESE 5.0 mph 8.0 mph 86 % 0.00 in 9 W/m2
15:25 37.6 °F 34.1 °F 30.19 in ESE 5.0 mph 9.0 mph 87 % 0.00 in 7 W/m2
15:30 37.6 °F 34.1 °F 30.19 in East 5.0 mph 9.0 mph 87 % 0.00 in 5 W/m2
15:37 37.6 °F 34.1 °F 30.19 in East 5.0 mph 7.0 mph 87 % 0.00 in 5 W/m2
15:43 37.4 °F 34.2 °F 30.19 in ESE 3.0 mph 7.0 mph 88 % 0.00 in 0 W/m2
15:47 37.4 °F 34.2 °F 30.19 in East 3.0 mph 8.0 mph 88 % 0.00 in 0 W/m2
15:52 37.2 °F 34.0 °F 30.18 in ESE 3.0 mph 8.0 mph 88 % 0.00 in 0 W/m2
15:57 37.2 °F 34.3 °F 30.19 in ESE 2.0 mph 6.0 mph 89 % 0.00 in 0 W/m2
16:03 37.2 °F 34.3 °F 30.18 in East 5.0 mph 8.0 mph 89 % 0.00 in 0 W/m2
16:08 37.0 °F 34.1 °F 30.18 in East 5.0 mph 9.0 mph 89 % 0.00 in 0 W/m2
16:14 37.0 °F 34.4 °F 30.19 in ESE 8.0 mph 14.0 mph 90 % 0.00 in 0 W/m2
16:16 37.0 °F 34.4 °F 30.19 in ESE 9.0 mph 13.0 mph 90 % 0.00 in 0 W/m2
16:21 37.0 °F 34.4 °F 30.18 in ESE 6.0 mph 10.0 mph 90 % 0.00 in 0 W/m2
16:27 36.9 °F 34.2 °F 30.19 in SE 7.0 mph 10.0 mph 90 % 0.00 in 0 W/m2
16:32 36.9 °F 34.2 °F 30.18 in SE 5.0 mph 7.0 mph 90 % 0.00 in 0 W/m2
16:35 36.9 °F 34.2 °F 30.18 in ESE 3.0 mph 6.0 mph 90 % 0.00 in 0 W/m2
16:37 36.9 °F 34.2 °F 30.18 in ESE 4.0 mph 7.0 mph 90 % 0.00 in 0 W/m2
16:38 36.9 °F 34.2 °F 30.18 in ESE 4.0 mph 6.0 mph 90 % 0.00 in 0 W/m2
16:42 36.9 °F 34.2 °F 30.18 in ESE 3.0 mph 6.0 mph 90 % 0.00 in 0 W/m2
16:47 36.7 °F 34.0 °F 30.18 in East 2.0 mph 6.0 mph 90 % 0.00 in 0 W/m2
16:52 36.7 °F 34.0 °F 30.18 in East 1.0 mph 4.0 mph 90 % 0.00 in 0 W/m2
16:56 36.7 °F 34.0 °F 30.18 in East 3.0 mph 6.0 mph 90 % 0.00 in 0 W/m2
16:58 36.7 °F 34.3 °F 30.17 in East 3.0 mph 6.0 mph 91 % 0.00 in 0 W/m2
17:04 36.7 °F 34.3 °F 30.17 in ENE 5.0 mph 7.0 mph 91 % 0.00 in 0 W/m2
17:09 36.5 °F 34.1 °F 30.17 in East 3.0 mph 7.0 mph 91 % 0.00 in 0 W/m2
17:14 36.5 °F 34.1 °F 30.17 in East 1.0 mph 4.0 mph 91 % 0.00 in 0 W/m2
17:16 36.5 °F 34.1 °F 30.17 in Calm   4.0 mph 91 % 0.00 in 0 W/m2
17:21 36.5 °F 34.4 °F 30.17 in East 2.0 mph 4.0 mph 92 % 0.00 in 0 W/m2
17:26 36.5 °F 34.4 °F 30.17 in Calm   3.0 mph 92 % 0.00 in 0 W/m2
17:36 36.3 °F 34.5 °F 30.17 in East 1.0 mph 5.0 mph 93 % 0.00 in 0 W/m2
17:41 36.3 °F 34.5 °F 30.16 in East 1.0 mph 5.0 mph 93 % 0.00 in 0 W/m2
17:46 36.3 °F 34.5 °F 30.16 in East 1.0 mph 4.0 mph 93 % 0.00 in 0 W/m2
17:48 36.3 °F 34.5 °F 30.17 in East 1.0 mph 4.0 mph 93 % 0.00 in 0 W/m2
17:49 36.3 °F 34.5 °F 30.17 in Calm   1.0 mph 93 % 0.00 in 0 W/m2
17:55 36.3 °F 34.5 °F 30.17 in ENE 1.0 mph 5.0 mph 93 % 0.00 in 0 W/m2
18:03 36.3 °F 34.8 °F 30.17 in East 1.0 mph 4.0 mph 94 % 0.00 in 0 W/m2
18:08 36.3 °F 34.8 °F 30.16 in Calm   2.0 mph 94 % 0.00 in 0 W/m2
18:13 36.3 °F 34.8 °F 30.16 in ENE 1.0 mph 5.0 mph 94 % 0.00 in 0 W/m2
18:14 36.3 °F 34.8 °F 30.16 in ENE 2.0 mph 5.0 mph 94 % 0.00 in 0 W/m2
18:20 36.3 °F 34.8 °F 30.16 in ENE 1.0 mph 5.0 mph 94 % 0.00 in 0 W/m2
18:25 36.3 °F 34.8 °F 30.15 in ENE 1.0 mph 5.0 mph 94 % 0.00 in 0 W/m2
18:30 36.1 °F 34.6 °F 30.15 in ENE 1.0 mph 4.0 mph 94 % 0.00 in 0 W/m2
18:35 36.1 °F 34.6 °F 30.15 in ENE 2.0 mph 5.0 mph 94 % 0.00 in 0 W/m2
18:40 36.1 °F 34.8 °F 30.15 in ENE 1.0 mph 4.0 mph 95 % 0.00 in 0 W/m2
18:45 36.1 °F 34.8 °F 30.15 in ENE 1.0 mph 2.0 mph 95 % 0.00 in 0 W/m2
18:47 36.1 °F 34.8 °F 30.15 in East 1.0 mph 5.0 mph 95 % 0.00 in 0 W/m2
18:52 36.1 °F 34.8 °F 30.15 in East 2.0 mph 6.0 mph 95 % 0.00 in 0 W/m2
18:54 36.1 °F 34.8 °F 30.14 in East 2.0 mph 6.0 mph 95 % 0.00 in 0 W/m2
18:59 36.1 °F 34.8 °F 30.14 in East 2.0 mph 5.0 mph 95 % 0.00 in 0 W/m2
19:04 36.1 °F 34.8 °F 30.14 in ESE 3.0 mph 6.0 mph 95 % 0.00 in 0 W/m2
19:09 36.1 °F 34.8 °F 30.14 in ESE 2.0 mph 5.0 mph 95 % 0.00 in 0 W/m2
19:13 36.1 °F 34.8 °F 30.14 in East 1.0 mph 2.0 mph 95 % 0.00 in 0 W/m2
19:15 36.1 °F 34.8 °F 30.14 in Calm     95 % 0.00 in 0 W/m2
19:20 36.1 °F 34.8 °F 30.13 in Calm   1.0 mph 95 % 0.00 in 0 W/m2
19:25 36.1 °F 34.8 °F 30.13 in East 3.0 mph 5.0 mph 95 % 0.00 in 0 W/m2
19:30 36.0 °F 34.7 °F 30.13 in East 1.0 mph 3.0 mph 95 % 0.00 in 0 W/m2
19:32 36.0 °F 34.7 °F 30.13 in East 1.0 mph 3.0 mph 95 % 0.00 in 0 W/m2
19:37 36.0 °F 34.7 °F 30.12 in East 1.0 mph 4.0 mph 95 % 0.01 in 0 W/m2
19:43 36.0 °F 34.7 °F 30.12 in ESE 2.0 mph 4.0 mph 95 % 0.01 in 0 W/m2
19:48 36.0 °F 34.7 °F 30.12 in ESE 1.0 mph 4.0 mph 95 % 0.01 in 0 W/m2
19:53 36.1 °F 34.8 °F 30.12 in ENE 2.0 mph 5.0 mph 95 % 0.01 in 0 W/m2
19:59 36.1 °F 34.8 °F 30.12 in ENE 1.0 mph 2.0 mph 95 % 0.01 in 0 W/m2
20:05 36.0 °F 34.9 °F 30.11 in ENE 1.0 mph 3.0 mph 96 % 0.01 in 0 W/m2
20:07 36.1 °F 35.1 °F 30.11 in East 2.0 mph 5.0 mph 96 % 0.01 in 0 W/m2
20:11 36.1 °F 35.1 °F 30.11 in East 1.0 mph 4.0 mph 96 % 0.01 in 0 W/m2
20:16 36.1 °F 35.1 °F 30.11 in ESE 2.0 mph 6.0 mph 96 % 0.01 in 0 W/m2
20:23 36.1 °F 35.1 °F 30.11 in East 2.0 mph 5.0 mph 96 % 0.01 in 0 W/m2
20:29 36.1 °F 35.1 °F 30.10 in ENE 1.0 mph 5.0 mph 96 % 0.01 in 0 W/m2
20:36 36.1 °F 35.1 °F 30.10 in East 1.0 mph 5.0 mph 96 % 0.00 in 0 W/m2
20:42 36.3 °F 35.3 °F 30.10 in ENE 1.0 mph 3.0 mph 96 % 0.00 in 0 W/m2
20:51 36.3 °F 35.3 °F 30.10 in ESE 2.0 mph 5.0 mph 96 % 0.00 in 0 W/m2
20:58 36.3 °F 35.3 °F 30.09 in Calm   2.0 mph 96 % 0.00 in 0 W/m2
21:12 36.3 °F 35.3 °F 30.09 in East 1.0 mph 2.0 mph 96 % 0.00 in 0 W/m2
21:20 36.3 °F 35.3 °F 30.08 in East 1.0 mph 4.0 mph 96 % 0.00 in 0 W/m2
21:25 36.3 °F 35.3 °F 30.09 in East 1.0 mph 3.0 mph 96 % 0.00 in 0 W/m2
21:30 36.3 °F 35.3 °F 30.08 in Calm   2.0 mph 96 % 0.00 in 0 W/m2
21:37 36.3 °F 35.3 °F 30.08 in SE 1.0 mph 4.0 mph 96 % 0.00 in 0 W/m2
21:43 36.3 °F 35.3 °F 30.07 in ESE 2.0 mph 5.0 mph 96 % 0.00 in 0 W/m2
21:48 36.5 °F 35.5 °F 30.07 in ESE 5.0 mph 7.0 mph 96 % 0.00 in 0 W/m2
21:56 36.5 °F 35.5 °F 30.07 in ESE 4.0 mph 7.0 mph 96 % 0.00 in 0 W/m2
22:01 36.5 °F 35.5 °F 30.07 in ESE 4.0 mph 7.0 mph 96 % 0.00 in 0 W/m2
22:07 36.5 °F 35.5 °F 30.07 in ESE 5.0 mph 9.0 mph 96 % 0.00 in 0 W/m2
22:20 36.5 °F 35.5 °F 30.07 in ESE 5.0 mph 8.0 mph 96 % 0.00 in 0 W/m2
22:25 36.3 °F 35.3 °F 30.06 in ESE 5.0 mph 9.0 mph 96 % 0.00 in 0 W/m2
22:30 36.3 °F 35.3 °F 30.06 in ESE 4.0 mph 6.0 mph 96 % 0.00 in 0 W/m2
22:35 36.3 °F 35.3 °F 30.05 in ESE 5.0 mph 7.0 mph 96 % 0.00 in 0 W/m2
22:38 36.3 °F 35.3 °F 30.05 in ESE 5.0 mph 7.0 mph 96 % 0.00 in 0 W/m2
22:43 36.3 °F 35.3 °F 30.05 in ESE 4.0 mph 7.0 mph 96 % 0.00 in 0 W/m2
22:48 36.3 °F 35.3 °F 30.05 in ESE 4.0 mph 7.0 mph 96 % 0.00 in 0 W/m2
22:51 36.3 °F 35.3 °F 30.05 in ESE 5.0 mph 7.0 mph 96 % 0.00 in 0 W/m2
22:55 36.3 °F 35.3 °F 30.05 in SE 5.0 mph 8.0 mph 96 % 0.00 in 0 W/m2
22:56 36.3 °F 35.3 °F 30.04 in ESE 5.0 mph 9.0 mph 96 % 0.00 in 0 W/m2
22:57 36.3 °F 35.3 °F 30.04 in ESE 5.0 mph 9.0 mph 96 % 0.00 in 0 W/m2
22:58 36.3 °F 35.3 °F 30.04 in ESE 6.0 mph 9.0 mph 96 % 0.00 in 0 W/m2
23:00 36.3 °F 35.3 °F 30.04 in ESE 6.0 mph 9.0 mph 96 % 0.00 in 0 W/m2
23:04 36.3 °F 35.3 °F 30.04 in ESE 7.0 mph 9.0 mph 96 % 0.00 in 0 W/m2
23:05 36.3 °F 35.3 °F 30.04 in ESE 6.0 mph 8.0 mph 96 % 0.00 in 0 W/m2
23:06 36.3 °F 35.3 °F 30.04 in SE 6.0 mph 8.0 mph 96 % 0.00 in 0 W/m2
23:08 36.3 °F 35.3 °F 30.04 in SE 7.0 mph 10.0 mph 96 % 0.00 in 0 W/m2
23:13 36.1 °F 35.1 °F 30.03 in SE 3.0 mph 7.0 mph 96 % 0.00 in 0 W/m2
23:16 36.1 °F 35.1 °F 30.03 in SE 3.0 mph 6.0 mph 96 % 0.00 in 0 W/m2
23:17 36.1 °F 35.1 °F 30.03 in SE 4.0 mph 8.0 mph 96 % 0.00 in 0 W/m2
23:19 36.1 °F 35.1 °F 30.03 in SE 4.0 mph 7.0 mph 96 % 0.00 in 0 W/m2
23:20 36.1 °F 35.1 °F 30.02 in SE 5.0 mph 11.0 mph 96 % 0.00 in 0 W/m2
23:23 36.1 °F 35.1 °F 30.02 in SE 6.0 mph 9.0 mph 96 % 0.00 in 0 W/m2
23:24 36.1 °F 35.1 °F 30.03 in SE 6.0 mph 8.0 mph 96 % 0.00 in 0 W/m2
23:26 36.1 °F 35.1 °F 30.02 in ESE 6.0 mph 8.0 mph 96 % 0.00 in 0 W/m2
23:30 36.1 °F 35.1 °F 30.02 in ESE 4.0 mph 10.0 mph 96 % 0.00 in 0 W/m2
23:32 36.1 °F 35.1 °F 30.02 in ESE 3.0 mph 10.0 mph 96 % 0.00 in 0 W/m2
23:37 36.1 °F 35.1 °F 30.02 in SSE 4.0 mph 6.0 mph 96 % 0.00 in 0 W/m2
23:38 36.1 °F 35.4 °F 30.02 in SSE 4.0 mph 6.0 mph 97 % 0.00 in 0 W/m2
23:41 36.1 °F 35.4 °F 30.02 in ESE 5.0 mph 7.0 mph 97 % 0.00 in 0 W/m2
23:44 36.1 °F 35.4 °F 30.02 in ESE 4.0 mph 7.0 mph 97 % 0.00 in 0 W/m2
23:45 36.1 °F 35.4 °F 30.02 in ESE 5.0 mph 7.0 mph 97 % 0.00 in 0 W/m2
23:46 36.1 °F 35.4 °F 30.02 in ESE 4.0 mph 7.0 mph 97 % 0.00 in 0 W/m2
23:50 36.1 °F 35.4 °F 30.01 in ESE 5.0 mph 7.0 mph 97 % 0.00 in 0 W/m2
23:53 36.0 °F 35.2 °F 30.01 in ESE 6.0 mph 9.0 mph 97 % 0.00 in 0 W/m2
23:55 36.0 °F 35.2 °F 30.01 in ESE 5.0 mph 8.0 mph 97 % 0.00 in 0 W/m2
23:56 36.0 °F 35.2 °F 30.01 in ESE 5.0 mph 8.0 mph 97 % 0.00 in 0 W/m2
23:59 36.0 °F 35.2 °F 30.01 in ESE 6.0 mph 10.0 mph 97 % 0.00 in 0 W/m2
Delerius-Weather
Compliments of Weather Underground - 2.25 mb

Data updates at regular intervals.